sensor_id;sensor_type;location;lat;lon;timestamp;P1;durP1;ratioP1;P2;durP2;ratioP2
42726;SDS011;28372;56.832;60.658;2022-09-30T00:01:38;2.88;;;1.45;;
42726;SDS011;28372;56.832;60.658;2022-09-30T00:04:06;3.10;;;1.30;;
42726;SDS011;28372;56.832;60.658;2022-09-30T00:06:39;3.47;;;1.50;;
42726;SDS011;28372;56.832;60.658;2022-09-30T00:09:06;2.40;;;1.30;;
42726;SDS011;28372;56.832;60.658;2022-09-30T00:11:34;2.92;;;1.30;;
42726;SDS011;28372;56.832;60.658;2022-09-30T00:14:02;3.10;;;1.40;;
42726;SDS011;28372;56.832;60.658;2022-09-30T00:16:31;3.13;;;1.35;;
42726;SDS011;28372;56.832;60.658;2022-09-30T00:19:00;2.65;;;1.10;;
42726;SDS011;28372;56.832;60.658;2022-09-30T00:21:28;2.40;;;1.20;;
42726;SDS011;28372;56.832;60.658;2022-09-30T00:23:56;3.63;;;1.40;;
42726;SDS011;28372;56.832;60.658;2022-09-30T00:26:23;3.95;;;1.30;;
42726;SDS011;28372;56.832;60.658;2022-09-30T00:28:52;3.28;;;1.40;;
42726;SDS011;28372;56.832;60.658;2022-09-30T00:31:22;3.00;;;1.48;;
42726;SDS011;28372;56.832;60.658;2022-09-30T00:33:52;3.60;;;1.30;;
42726;SDS011;28372;56.832;60.658;2022-09-30T00:39:24;2.78;;;1.30;;
42726;SDS011;28372;56.832;60.658;2022-09-30T00:41:57;2.70;;;1.50;;
42726;SDS011;28372;56.832;60.658;2022-09-30T00:47:24;2.85;;;1.30;;
42726;SDS011;28372;56.832;60.658;2022-09-30T00:50:19;2.47;;;1.35;;
42726;SDS011;28372;56.832;60.658;2022-09-30T00:53:17;2.78;;;1.48;;
42726;SDS011;28372;56.832;60.658;2022-09-30T00:58:38;4.40;;;1.38;;
42726;SDS011;28372;56.832;60.658;2022-09-30T01:03:37;4.25;;;1.70;;
42726;SDS011;28372;56.832;60.658;2022-09-30T01:06:16;3.42;;;1.40;;
42726;SDS011;28372;56.832;60.658;2022-09-30T01:08:45;3.70;;;1.30;;
42726;SDS011;28372;56.832;60.658;2022-09-30T01:11:13;3.65;;;1.50;;
42726;SDS011;28372;56.832;60.658;2022-09-30T01:13:41;4.22;;;1.40;;
42726;SDS011;28372;56.832;60.658;2022-09-30T01:35:01;3.10;;;1.50;;
42726;SDS011;28372;56.832;60.658;2022-09-30T01:43:38;2.80;;;1.42;;
42726;SDS011;28372;56.832;60.658;2022-09-30T01:46:36;2.63;;;1.23;;
42726;SDS011;28372;56.832;60.658;2022-09-30T01:52:08;2.72;;;1.48;;
42726;SDS011;28372;56.832;60.658;2022-09-30T01:54:46;3.17;;;1.42;;
42726;SDS011;28372;56.832;60.658;2022-09-30T01:57:55;3.25;;;1.33;;
42726;SDS011;28372;56.832;60.658;2022-09-30T02:00:24;2.90;;;1.33;;
42726;SDS011;28372;56.832;60.658;2022-09-30T02:02:56;4.22;;;1.50;;
42726;SDS011;28372;56.832;60.658;2022-09-30T02:05:29;2.85;;;1.48;;
42726;SDS011;28372;56.832;60.658;2022-09-30T02:08:18;3.13;;;1.30;;
42726;SDS011;28372;56.832;60.658;2022-09-30T02:10:52;3.00;;;1.30;;
42726;SDS011;28372;56.832;60.658;2022-09-30T02:13:30;4.53;;;1.60;;
42726;SDS011;28372;56.832;60.658;2022-09-30T02:16:33;2.90;;;1.55;;
42726;SDS011;28372;56.832;60.658;2022-09-30T02:19:21;3.45;;;1.48;;
42726;SDS011;28372;56.832;60.658;2022-09-30T02:22:00;2.47;;;1.40;;
42726;SDS011;28372;56.832;60.658;2022-09-30T02:24:33;3.67;;;1.50;;
42726;SDS011;28372;56.832;60.658;2022-09-30T02:27:06;5.05;;;1.80;;
42726;SDS011;28372;56.832;60.658;2022-09-30T02:29:42;4.93;;;1.70;;
42726;SDS011;28372;56.832;60.658;2022-09-30T02:32:26;3.45;;;2.10;;
42726;SDS011;28372;56.832;60.658;2022-09-30T02:38:16;3.63;;;1.40;;
42726;SDS011;28372;56.832;60.658;2022-09-30T02:43:44;5.05;;;1.60;;
42726;SDS011;28372;56.832;60.658;2022-09-30T02:46:22;4.18;;;1.58;;
42726;SDS011;28372;56.832;60.658;2022-09-30T02:49:01;2.40;;;1.25;;
42726;SDS011;28372;56.832;60.658;2022-09-30T02:57:41;5.28;;;1.50;;
42726;SDS011;28372;56.832;60.658;2022-09-30T03:00:31;4.40;;;1.67;;
42726;SDS011;28372;56.832;60.658;2022-09-30T03:03:00;3.20;;;1.55;;
42726;SDS011;28372;56.832;60.658;2022-09-30T03:05:33;6.22;;;2.10;;
42726;SDS011;28372;56.832;60.658;2022-09-30T03:08:01;5.72;;;1.58;;
42726;SDS011;28372;56.832;60.658;2022-09-30T03:10:29;3.78;;;1.55;;
42726;SDS011;28372;56.832;60.658;2022-09-30T03:13:04;4.15;;;1.50;;
42726;SDS011;28372;56.832;60.658;2022-09-30T03:21:54;3.63;;;1.80;;
42726;SDS011;28372;56.832;60.658;2022-09-30T03:27:30;3.70;;;1.55;;
42726;SDS011;28372;56.832;60.658;2022-09-30T03:30:06;4.13;;;1.60;;
42726;SDS011;28372;56.832;60.658;2022-09-30T03:41:14;5.68;;;1.80;;
42726;SDS011;28372;56.832;60.658;2022-09-30T03:44:10;3.97;;;1.50;;
42726;SDS011;28372;56.832;60.658;2022-09-30T03:46:46;3.35;;;1.70;;
42726;SDS011;28372;56.832;60.658;2022-09-30T03:49:21;3.95;;;1.30;;
42726;SDS011;28372;56.832;60.658;2022-09-30T03:51:51;4.72;;;1.77;;
42726;SDS011;28372;56.832;60.658;2022-09-30T03:54:20;3.85;;;1.92;;
42726;SDS011;28372;56.832;60.658;2022-09-30T03:56:48;4.05;;;2.03;;
42726;SDS011;28372;56.832;60.658;2022-09-30T03:59:22;6.68;;;1.88;;
42726;SDS011;28372;56.832;60.658;2022-09-30T04:01:51;7.30;;;1.77;;
42726;SDS011;28372;56.832;60.658;2022-09-30T04:04:19;4.57;;;2.00;;
42726;SDS011;28372;56.832;60.658;2022-09-30T04:06:47;3.95;;;1.60;;
42726;SDS011;28372;56.832;60.658;2022-09-30T04:09:14;3.78;;;1.80;;
42726;SDS011;28372;56.832;60.658;2022-09-30T04:11:42;5.97;;;1.67;;
42726;SDS011;28372;56.832;60.658;2022-09-30T04:14:10;4.68;;;1.95;;
42726;SDS011;28372;56.832;60.658;2022-09-30T04:16:37;4.53;;;1.80;;
42726;SDS011;28372;56.832;60.658;2022-09-30T04:19:05;4.53;;;1.92;;
42726;SDS011;28372;56.832;60.658;2022-09-30T04:21:32;4.82;;;1.90;;
42726;SDS011;28372;56.832;60.658;2022-09-30T04:24:00;3.45;;;1.65;;
42726;SDS011;28372;56.832;60.658;2022-09-30T04:26:27;4.85;;;1.90;;
42726;SDS011;28372;56.832;60.658;2022-09-30T04:28:55;6.47;;;2.00;;
42726;SDS011;28372;56.832;60.658;2022-09-30T04:31:24;4.22;;;2.00;;
42726;SDS011;28372;56.832;60.658;2022-09-30T04:33:52;8.02;;;1.90;;
42726;SDS011;28372;56.832;60.658;2022-09-30T04:36:19;5.95;;;1.90;;
42726;SDS011;28372;56.832;60.658;2022-09-30T04:38:47;4.15;;;1.63;;
42726;SDS011;28372;56.832;60.658;2022-09-30T04:41:15;3.65;;;1.65;;
42726;SDS011;28372;56.832;60.658;2022-09-30T04:43:43;4.40;;;1.80;;
42726;SDS011;28372;56.832;60.658;2022-09-30T04:46:13;4.78;;;1.73;;
42726;SDS011;28372;56.832;60.658;2022-09-30T04:48:42;6.68;;;2.10;;
42726;SDS011;28372;56.832;60.658;2022-09-30T04:51:16;4.55;;;1.83;;
42726;SDS011;28372;56.832;60.658;2022-09-30T04:53:47;3.60;;;2.22;;
42726;SDS011;28372;56.832;60.658;2022-09-30T04:56:15;3.70;;;1.85;;
42726;SDS011;28372;56.832;60.658;2022-09-30T04:58:43;7.22;;;2.50;;
42726;SDS011;28372;56.832;60.658;2022-09-30T05:01:11;4.60;;;2.40;;
42726;SDS011;28372;56.832;60.658;2022-09-30T05:03:41;7.60;;;2.25;;
42726;SDS011;28372;56.832;60.658;2022-09-30T05:06:09;5.78;;;1.83;;
42726;SDS011;28372;56.832;60.658;2022-09-30T05:08:37;4.10;;;1.95;;
42726;SDS011;28372;56.832;60.658;2022-09-30T05:11:15;4.10;;;1.80;;
42726;SDS011;28372;56.832;60.658;2022-09-30T05:13:44;4.88;;;2.10;;
42726;SDS011;28372;56.832;60.658;2022-09-30T05:16:13;5.57;;;1.90;;
42726;SDS011;28372;56.832;60.658;2022-09-30T05:18:41;4.75;;;1.98;;
42726;SDS011;28372;56.832;60.658;2022-09-30T05:21:16;4.13;;;1.90;;
42726;SDS011;28372;56.832;60.658;2022-09-30T05:23:46;6.90;;;2.08;;
42726;SDS011;28372;56.832;60.658;2022-09-30T05:26:14;4.95;;;1.80;;
42726;SDS011;28372;56.832;60.658;2022-09-30T05:28:41;4.97;;;2.10;;
42726;SDS011;28372;56.832;60.658;2022-09-30T05:31:09;4.20;;;2.15;;
42726;SDS011;28372;56.832;60.658;2022-09-30T05:33:38;5.70;;;2.15;;
42726;SDS011;28372;56.832;60.658;2022-09-30T05:36:07;3.42;;;1.90;;
42726;SDS011;28372;56.832;60.658;2022-09-30T05:38:35;4.18;;;1.90;;
42726;SDS011;28372;56.832;60.658;2022-09-30T05:41:10;5.95;;;2.20;;
42726;SDS011;28372;56.832;60.658;2022-09-30T05:43:40;6.80;;;1.80;;
42726;SDS011;28372;56.832;60.658;2022-09-30T05:46:09;3.67;;;1.73;;
42726;SDS011;28372;56.832;60.658;2022-09-30T05:48:37;4.05;;;1.75;;
42726;SDS011;28372;56.832;60.658;2022-09-30T05:51:05;3.95;;;2.00;;
42726;SDS011;28372;56.832;60.658;2022-09-30T05:53:33;3.30;;;1.65;;
42726;SDS011;28372;56.832;60.658;2022-09-30T05:56:05;5.07;;;2.20;;
42726;SDS011;28372;56.832;60.658;2022-09-30T05:58:34;4.55;;;1.98;;
42726;SDS011;28372;56.832;60.658;2022-09-30T06:01:03;4.70;;;2.13;;
42726;SDS011;28372;56.832;60.658;2022-09-30T06:03:39;5.60;;;2.03;;
42726;SDS011;28372;56.832;60.658;2022-09-30T06:06:07;5.95;;;2.28;;
42726;SDS011;28372;56.832;60.658;2022-09-30T06:08:35;5.45;;;2.30;;
42726;SDS011;28372;56.832;60.658;2022-09-30T06:11:06;6.70;;;2.75;;
42726;SDS011;28372;56.832;60.658;2022-09-30T06:13:38;5.80;;;2.50;;
42726;SDS011;28372;56.832;60.658;2022-09-30T06:16:07;4.60;;;2.28;;
42726;SDS011;28372;56.832;60.658;2022-09-30T06:18:36;5.47;;;2.45;;
42726;SDS011;28372;56.832;60.658;2022-09-30T06:21:07;4.25;;;2.13;;
42726;SDS011;28372;56.832;60.658;2022-09-30T06:23:38;5.97;;;2.30;;
42726;SDS011;28372;56.832;60.658;2022-09-30T06:26:06;4.30;;;1.98;;
42726;SDS011;28372;56.832;60.658;2022-09-30T06:28:36;4.47;;;2.00;;
42726;SDS011;28372;56.832;60.658;2022-09-30T06:31:04;6.13;;;2.30;;
42726;SDS011;28372;56.832;60.658;2022-09-30T06:33:32;4.15;;;1.85;;
42726;SDS011;28372;56.832;60.658;2022-09-30T06:36:00;4.10;;;2.00;;
42726;SDS011;28372;56.832;60.658;2022-09-30T06:38:32;4.72;;;2.03;;
42726;SDS011;28372;56.832;60.658;2022-09-30T06:41:03;7.88;;;1.95;;
42726;SDS011;28372;56.832;60.658;2022-09-30T06:43:31;6.15;;;2.15;;
42726;SDS011;28372;56.832;60.658;2022-09-30T06:46:19;4.00;;;1.80;;
42726;SDS011;28372;56.832;60.658;2022-09-30T06:48:56;5.90;;;1.90;;
42726;SDS011;28372;56.832;60.658;2022-09-30T06:51:40;4.43;;;1.83;;
42726;SDS011;28372;56.832;60.658;2022-09-30T06:54:08;3.15;;;1.25;;
42726;SDS011;28372;56.832;60.658;2022-09-30T06:56:36;5.93;;;1.58;;
42726;SDS011;28372;56.832;60.658;2022-09-30T06:59:04;3.22;;;1.40;;
42726;SDS011;28372;56.832;60.658;2022-09-30T07:01:31;4.85;;;1.65;;
42726;SDS011;28372;56.832;60.658;2022-09-30T07:03:58;2.22;;;1.15;;
42726;SDS011;28372;56.832;60.658;2022-09-30T07:06:29;4.07;;;1.40;;
42726;SDS011;28372;56.832;60.658;2022-09-30T07:08:57;3.92;;;1.63;;
42726;SDS011;28372;56.832;60.658;2022-09-30T07:11:24;3.30;;;1.30;;
42726;SDS011;28372;56.832;60.658;2022-09-30T07:13:52;5.45;;;1.38;;
42726;SDS011;28372;56.832;60.658;2022-09-30T07:16:20;4.22;;;1.33;;
42726;SDS011;28372;56.832;60.658;2022-09-30T07:18:48;5.75;;;1.60;;
42726;SDS011;28372;56.832;60.658;2022-09-30T07:21:15;2.67;;;1.38;;
42726;SDS011;28372;56.832;60.658;2022-09-30T07:23:43;3.22;;;1.40;;
42726;SDS011;28372;56.832;60.658;2022-09-30T07:26:14;3.40;;;1.60;;
42726;SDS011;28372;56.832;60.658;2022-09-30T07:28:46;3.15;;;1.40;;
42726;SDS011;28372;56.832;60.658;2022-09-30T07:31:15;5.05;;;1.67;;
42726;SDS011;28372;56.832;60.658;2022-09-30T07:33:59;2.88;;;1.50;;
42726;SDS011;28372;56.832;60.658;2022-09-30T07:36:27;3.95;;;1.25;;
42726;SDS011;28372;56.832;60.658;2022-09-30T07:39:03;4.35;;;1.27;;
42726;SDS011;28372;56.832;60.658;2022-09-30T07:41:34;2.58;;;1.27;;
42726;SDS011;28372;56.832;60.658;2022-09-30T07:44:06;4.00;;;1.30;;
42726;SDS011;28372;56.832;60.658;2022-09-30T07:46:36;2.67;;;1.23;;
42726;SDS011;28372;56.832;60.658;2022-09-30T07:49:07;3.58;;;1.13;;
42726;SDS011;28372;56.832;60.658;2022-09-30T07:51:39;3.53;;;1.08;;
42726;SDS011;28372;56.832;60.658;2022-09-30T07:54:14;3.25;;;1.10;;
42726;SDS011;28372;56.832;60.658;2022-09-30T07:56:44;5.38;;;1.30;;
42726;SDS011;28372;56.832;60.658;2022-09-30T07:59:34;3.20;;;1.38;;
42726;SDS011;28372;56.832;60.658;2022-09-30T08:02:04;2.17;;;0.93;;
42726;SDS011;28372;56.832;60.658;2022-09-30T08:04:33;4.55;;;1.45;;
42726;SDS011;28372;56.832;60.658;2022-09-30T08:07:04;2.33;;;1.00;;
42726;SDS011;28372;56.832;60.658;2022-09-30T08:09:33;4.10;;;1.50;;
42726;SDS011;28372;56.832;60.658;2022-09-30T08:12:01;4.60;;;1.20;;
42726;SDS011;28372;56.832;60.658;2022-09-30T08:14:30;3.10;;;0.90;;
42726;SDS011;28372;56.832;60.658;2022-09-30T08:16:58;2.25;;;1.02;;
42726;SDS011;28372;56.832;60.658;2022-09-30T08:19:27;3.08;;;1.23;;
42726;SDS011;28372;56.832;60.658;2022-09-30T08:21:56;3.40;;;1.10;;
42726;SDS011;28372;56.832;60.658;2022-09-30T08:24:24;3.70;;;1.30;;
42726;SDS011;28372;56.832;60.658;2022-09-30T08:26:53;2.83;;;1.20;;
42726;SDS011;28372;56.832;60.658;2022-09-30T08:29:21;3.22;;;1.10;;
42726;SDS011;28372;56.832;60.658;2022-09-30T08:32:09;3.45;;;1.17;;
42726;SDS011;28372;56.832;60.658;2022-09-30T08:34:36;3.08;;;1.23;;
42726;SDS011;28372;56.832;60.658;2022-09-30T08:37:04;3.22;;;1.10;;
42726;SDS011;28372;56.832;60.658;2022-09-30T08:39:36;1.83;;;0.93;;
42726;SDS011;28372;56.832;60.658;2022-09-30T08:44:56;3.67;;;1.50;;
42726;SDS011;28372;56.832;60.658;2022-09-30T08:50:32;2.72;;;1.23;;
42726;SDS011;28372;56.832;60.658;2022-09-30T08:53:10;4.05;;;1.52;;
42726;SDS011;28372;56.832;60.658;2022-09-30T08:55:44;1.67;;;0.85;;
42726;SDS011;28372;56.832;60.658;2022-09-30T08:58:25;3.45;;;1.10;;
42726;SDS011;28372;56.832;60.658;2022-09-30T09:01:39;3.55;;;1.00;;
42726;SDS011;28372;56.832;60.658;2022-09-30T09:03:59;3.83;;;1.10;;
42726;SDS011;28372;56.832;60.658;2022-09-30T09:12:34;4.68;;;1.33;;
42726;SDS011;28372;56.832;60.658;2022-09-30T09:15:21;2.40;;;0.95;;
42726;SDS011;28372;56.832;60.658;2022-09-30T09:18:20;3.25;;;1.15;;
42726;SDS011;28372;56.832;60.658;2022-09-30T09:20:56;2.03;;;1.10;;
42726;SDS011;28372;56.832;60.658;2022-09-30T09:23:26;4.32;;;1.33;;
42726;SDS011;28372;56.832;60.658;2022-09-30T09:25:57;4.40;;;1.20;;
42726;SDS011;28372;56.832;60.658;2022-09-30T09:31:10;2.75;;;1.20;;
42726;SDS011;28372;56.832;60.658;2022-09-30T09:33:43;4.35;;;1.15;;
42726;SDS011;28372;56.832;60.658;2022-09-30T09:47:53;4.40;;;1.30;;
42726;SDS011;28372;56.832;60.658;2022-09-30T09:50:25;2.03;;;1.10;;
42726;SDS011;28372;56.832;60.658;2022-09-30T09:55:45;2.72;;;0.98;;
42726;SDS011;28372;56.832;60.658;2022-09-30T09:58:15;4.93;;;1.20;;
42726;SDS011;28372;56.832;60.658;2022-09-30T10:00:43;3.70;;;1.40;;
42726;SDS011;28372;56.832;60.658;2022-09-30T10:03:15;1.95;;;0.85;;
42726;SDS011;28372;56.832;60.658;2022-09-30T10:08:51;1.90;;;0.90;;
42726;SDS011;28372;56.832;60.658;2022-09-30T10:11:21;2.10;;;1.00;;
42726;SDS011;28372;56.832;60.658;2022-09-30T10:13:52;1.95;;;1.10;;
42726;SDS011;28372;56.832;60.658;2022-09-30T10:18:53;2.00;;;1.02;;
42726;SDS011;28372;56.832;60.658;2022-09-30T10:21:22;1.85;;;0.95;;
42726;SDS011;28372;56.832;60.658;2022-09-30T10:23:51;5.30;;;0.98;;
42726;SDS011;28372;56.832;60.658;2022-09-30T10:26:20;3.42;;;1.30;;
42726;SDS011;28372;56.832;60.658;2022-09-30T10:28:51;3.28;;;1.40;;
42726;SDS011;28372;56.832;60.658;2022-09-30T10:31:22;3.67;;;1.50;;
42726;SDS011;28372;56.832;60.658;2022-09-30T10:36:46;3.03;;;1.10;;
42726;SDS011;28372;56.832;60.658;2022-09-30T10:39:20;4.28;;;1.60;;
42726;SDS011;28372;56.832;60.658;2022-09-30T10:41:51;3.08;;;1.48;;
42726;SDS011;28372;56.832;60.658;2022-09-30T10:44:48;3.20;;;0.70;;
42726;SDS011;28372;56.832;60.658;2022-09-30T10:47:28;3.15;;;1.00;;
42726;SDS011;28372;56.832;60.658;2022-09-30T10:52:37;2.95;;;0.90;;
42726;SDS011;28372;56.832;60.658;2022-09-30T10:55:32;1.88;;;0.95;;
42726;SDS011;28372;56.832;60.658;2022-09-30T10:58:19;5.05;;;1.20;;
42726;SDS011;28372;56.832;60.658;2022-09-30T11:04:16;3.97;;;1.27;;
42726;SDS011;28372;56.832;60.658;2022-09-30T11:06:25;2.90;;;1.30;;
42726;SDS011;28372;56.832;60.658;2022-09-30T11:08:58;6.05;;;1.42;;
42726;SDS011;28372;56.832;60.658;2022-09-30T11:11:43;4.30;;;1.30;;
42726;SDS011;28372;56.832;60.658;2022-09-30T11:14:19;3.72;;;1.23;;
42726;SDS011;28372;56.832;60.658;2022-09-30T11:19:50;3.90;;;1.40;;
42726;SDS011;28372;56.832;60.658;2022-09-30T11:25:14;2.90;;;1.25;;
42726;SDS011;28372;56.832;60.658;2022-09-30T11:30:37;3.00;;;1.40;;
42726;SDS011;28372;56.832;60.658;2022-09-30T11:33:40;3.47;;;1.65;;
42726;SDS011;28372;56.832;60.658;2022-09-30T11:36:27;5.38;;;1.80;;
42726;SDS011;28372;56.832;60.658;2022-09-30T11:42:05;3.35;;;1.40;;
42726;SDS011;28372;56.832;60.658;2022-09-30T11:44:40;3.45;;;1.30;;
42726;SDS011;28372;56.832;60.658;2022-09-30T11:47:32;3.50;;;1.73;;
42726;SDS011;28372;56.832;60.658;2022-09-30T11:50:27;4.38;;;2.00;;
42726;SDS011;28372;56.832;60.658;2022-09-30T11:58:48;4.78;;;1.70;;
42726;SDS011;28372;56.832;60.658;2022-09-30T12:04:28;4.10;;;1.88;;
42726;SDS011;28372;56.832;60.658;2022-09-30T12:07:21;3.22;;;1.58;;
42726;SDS011;28372;56.832;60.658;2022-09-30T12:09:59;7.50;;;2.15;;
42726;SDS011;28372;56.832;60.658;2022-09-30T12:12:33;6.30;;;1.95;;
42726;SDS011;28372;56.832;60.658;2022-09-30T12:15:02;3.55;;;1.50;;
42726;SDS011;28372;56.832;60.658;2022-09-30T12:17:40;7.53;;;1.77;;
42726;SDS011;28372;56.832;60.658;2022-09-30T12:25:58;3.63;;;1.83;;
42726;SDS011;28372;56.832;60.658;2022-09-30T12:36:29;2.90;;;1.40;;
42726;SDS011;28372;56.832;60.658;2022-09-30T12:42:14;7.00;;;2.35;;
42726;SDS011;28372;56.832;60.658;2022-09-30T12:47:52;6.28;;;2.33;;
42726;SDS011;28372;56.832;60.658;2022-09-30T12:50:26;3.72;;;1.55;;
42726;SDS011;28372;56.832;60.658;2022-09-30T12:52:56;4.18;;;1.83;;
42726;SDS011;28372;56.832;60.658;2022-09-30T12:57:57;3.70;;;1.70;;
42726;SDS011;28372;56.832;60.658;2022-09-30T13:00:30;5.13;;;1.80;;
42726;SDS011;28372;56.832;60.658;2022-09-30T13:03:04;5.53;;;2.00;;
42726;SDS011;28372;56.832;60.658;2022-09-30T13:10:58;7.65;;;1.80;;
42726;SDS011;28372;56.832;60.658;2022-09-30T13:13:31;3.22;;;1.60;;
42726;SDS011;28372;56.832;60.658;2022-09-30T13:16:03;4.90;;;2.22;;
42726;SDS011;28372;56.832;60.658;2022-09-30T13:26:04;4.13;;;1.70;;
42726;SDS011;28372;56.832;60.658;2022-09-30T13:28:55;5.03;;;1.80;;
42726;SDS011;28372;56.832;60.658;2022-09-30T13:34:46;5.10;;;2.00;;
42726;SDS011;28372;56.832;60.658;2022-09-30T13:37:29;7.10;;;2.40;;
42726;SDS011;28372;56.832;60.658;2022-09-30T13:39:59;5.13;;;1.98;;
42726;SDS011;28372;56.832;60.658;2022-09-30T13:42:31;5.55;;;2.33;;
42726;SDS011;28372;56.832;60.658;2022-09-30T13:47:42;2.63;;;1.48;;
42726;SDS011;28372;56.832;60.658;2022-09-30T13:50:17;4.80;;;1.40;;
42726;SDS011;28372;56.832;60.658;2022-09-30T13:52:53;3.72;;;1.75;;
42726;SDS011;28372;56.832;60.658;2022-09-30T13:55:26;4.30;;;2.08;;
42726;SDS011;28372;56.832;60.658;2022-09-30T14:11:34;4.07;;;1.90;;
42726;SDS011;28372;56.832;60.658;2022-09-30T14:19:26;3.85;;;2.03;;
42726;SDS011;28372;56.832;60.658;2022-09-30T14:21:57;4.97;;;2.30;;
42726;SDS011;28372;56.832;60.658;2022-09-30T14:24:34;3.67;;;2.00;;
42726;SDS011;28372;56.832;60.658;2022-09-30T14:30:03;6.30;;;2.20;;
42726;SDS011;28372;56.832;60.658;2022-09-30T14:35:17;5.30;;;2.30;;
42726;SDS011;28372;56.832;60.658;2022-09-30T14:37:52;5.90;;;2.22;;
42726;SDS011;28372;56.832;60.658;2022-09-30T14:40:24;4.93;;;2.25;;
42726;SDS011;28372;56.832;60.658;2022-09-30T14:42:56;4.80;;;2.10;;
42726;SDS011;28372;56.832;60.658;2022-09-30T14:45:35;6.10;;;2.25;;
42726;SDS011;28372;56.832;60.658;2022-09-30T14:48:07;6.95;;;2.72;;
42726;SDS011;28372;56.832;60.658;2022-09-30T14:50:45;6.47;;;2.13;;
42726;SDS011;28372;56.832;60.658;2022-09-30T14:53:28;5.32;;;2.13;;
42726;SDS011;28372;56.832;60.658;2022-09-30T14:56:17;5.00;;;2.25;;
42726;SDS011;28372;56.832;60.658;2022-09-30T14:58:48;4.05;;;1.98;;
42726;SDS011;28372;56.832;60.658;2022-09-30T15:01:19;6.60;;;2.40;;
42726;SDS011;28372;56.832;60.658;2022-09-30T15:03:53;4.05;;;2.22;;
42726;SDS011;28372;56.832;60.658;2022-09-30T15:06:29;5.35;;;2.70;;
42726;SDS011;28372;56.832;60.658;2022-09-30T15:09:06;5.10;;;2.10;;
42726;SDS011;28372;56.832;60.658;2022-09-30T15:11:42;7.57;;;2.25;;
42726;SDS011;28372;56.832;60.658;2022-09-30T15:14:20;4.85;;;2.00;;
42726;SDS011;28372;56.832;60.658;2022-09-30T15:16:50;4.85;;;2.22;;
42726;SDS011;28372;56.832;60.658;2022-09-30T15:19:21;4.50;;;2.08;;
42726;SDS011;28372;56.832;60.658;2022-09-30T15:21:53;7.22;;;2.47;;
42726;SDS011;28372;56.832;60.658;2022-09-30T15:24:23;5.70;;;2.45;;
42726;SDS011;28372;56.832;60.658;2022-09-30T15:26:53;6.90;;;2.80;;
42726;SDS011;28372;56.832;60.658;2022-09-30T15:29:21;4.68;;;2.28;;
42726;SDS011;28372;56.832;60.658;2022-09-30T15:31:55;7.20;;;2.42;;
42726;SDS011;28372;56.832;60.658;2022-09-30T15:34:30;4.75;;;2.03;;
42726;SDS011;28372;56.832;60.658;2022-09-30T15:37:01;5.70;;;2.40;;
42726;SDS011;28372;56.832;60.658;2022-09-30T15:39:40;3.85;;;1.80;;
42726;SDS011;28372;56.832;60.658;2022-09-30T15:45:02;5.70;;;2.50;;
42726;SDS011;28372;56.832;60.658;2022-09-30T15:47:54;4.28;;;2.13;;
42726;SDS011;28372;56.832;60.658;2022-09-30T15:50:42;4.30;;;2.05;;
42726;SDS011;28372;56.832;60.658;2022-09-30T15:53:15;4.93;;;2.10;;
42726;SDS011;28372;56.832;60.658;2022-09-30T15:56:04;5.47;;;2.40;;
42726;SDS011;28372;56.832;60.658;2022-09-30T16:01:50;4.60;;;2.10;;
42726;SDS011;28372;56.832;60.658;2022-09-30T16:04:22;5.20;;;2.40;;
42726;SDS011;28372;56.832;60.658;2022-09-30T16:07:05;6.18;;;2.40;;
42726;SDS011;28372;56.832;60.658;2022-09-30T16:09:36;6.55;;;3.40;;
42726;SDS011;28372;56.832;60.658;2022-09-30T16:14:41;6.00;;;2.65;;
42726;SDS011;28372;56.832;60.658;2022-09-30T16:17:18;4.80;;;2.28;;
42726;SDS011;28372;56.832;60.658;2022-09-30T16:20:04;4.18;;;2.13;;
42726;SDS011;28372;56.832;60.658;2022-09-30T16:28:16;6.35;;;2.75;;
42726;SDS011;28372;56.832;60.658;2022-09-30T16:30:45;5.65;;;2.63;;
42726;SDS011;28372;56.832;60.658;2022-09-30T16:33:17;5.95;;;2.45;;
42726;SDS011;28372;56.832;60.658;2022-09-30T16:35:45;5.32;;;2.40;;
42726;SDS011;28372;56.832;60.658;2022-09-30T16:38:16;5.90;;;2.78;;
42726;SDS011;28372;56.832;60.658;2022-09-30T16:40:44;9.52;;;4.05;;
42726;SDS011;28372;56.832;60.658;2022-09-30T16:43:11;6.03;;;2.60;;
42726;SDS011;28372;56.832;60.658;2022-09-30T16:45:39;5.95;;;3.00;;
42726;SDS011;28372;56.832;60.658;2022-09-30T16:48:12;5.50;;;2.65;;
42726;SDS011;28372;56.832;60.658;2022-09-30T16:50:45;5.38;;;2.55;;
42726;SDS011;28372;56.832;60.658;2022-09-30T16:53:17;5.13;;;2.38;;
42726;SDS011;28372;56.832;60.658;2022-09-30T16:55:45;4.88;;;2.45;;
42726;SDS011;28372;56.832;60.658;2022-09-30T16:58:14;5.38;;;2.60;;
42726;SDS011;28372;56.832;60.658;2022-09-30T17:00:42;4.63;;;2.30;;
42726;SDS011;28372;56.832;60.658;2022-09-30T17:03:11;4.28;;;2.17;;
42726;SDS011;28372;56.832;60.658;2022-09-30T17:05:41;7.00;;;2.55;;
42726;SDS011;28372;56.832;60.658;2022-09-30T17:08:27;5.03;;;2.10;;
42726;SDS011;28372;56.832;60.658;2022-09-30T17:10:56;3.63;;;2.10;;
42726;SDS011;28372;56.832;60.658;2022-09-30T17:13:25;4.03;;;1.85;;
42726;SDS011;28372;56.832;60.658;2022-09-30T17:15:52;6.32;;;2.17;;
42726;SDS011;28372;56.832;60.658;2022-09-30T17:18:21;2.50;;;1.40;;
42726;SDS011;28372;56.832;60.658;2022-09-30T17:20:48;4.00;;;1.80;;
42726;SDS011;28372;56.832;60.658;2022-09-30T17:23:19;4.63;;;2.13;;
42726;SDS011;28372;56.832;60.658;2022-09-30T17:25:48;4.25;;;1.73;;
42726;SDS011;28372;56.832;60.658;2022-09-30T17:28:16;2.08;;;1.15;;
42726;SDS011;28372;56.832;60.658;2022-09-30T17:30:44;5.90;;;2.10;;
42726;SDS011;28372;56.832;60.658;2022-09-30T17:33:14;4.78;;;2.00;;
42726;SDS011;28372;56.832;60.658;2022-09-30T17:35:42;5.05;;;2.00;;
42726;SDS011;28372;56.832;60.658;2022-09-30T17:38:10;6.35;;;2.25;;
42726;SDS011;28372;56.832;60.658;2022-09-30T17:40:39;4.28;;;2.40;;
42726;SDS011;28372;56.832;60.658;2022-09-30T17:43:25;4.22;;;2.13;;
42726;SDS011;28372;56.832;60.658;2022-09-30T17:45:52;3.40;;;1.80;;
42726;SDS011;28372;56.832;60.658;2022-09-30T17:48:25;4.27;;;2.00;;
42726;SDS011;28372;56.832;60.658;2022-09-30T17:50:53;6.93;;;2.25;;
42726;SDS011;28372;56.832;60.658;2022-09-30T17:53:21;6.05;;;2.10;;
42726;SDS011;28372;56.832;60.658;2022-09-30T17:56:03;4.30;;;1.88;;
42726;SDS011;28372;56.832;60.658;2022-09-30T17:58:36;5.25;;;1.90;;
42726;SDS011;28372;56.832;60.658;2022-09-30T18:01:06;3.38;;;1.50;;
42726;SDS011;28372;56.832;60.658;2022-09-30T18:03:34;3.40;;;1.80;;
42726;SDS011;28372;56.832;60.658;2022-09-30T18:06:02;2.65;;;1.55;;
42726;SDS011;28372;56.832;60.658;2022-09-30T18:08:30;3.50;;;1.40;;
42726;SDS011;28372;56.832;60.658;2022-09-30T18:10:58;3.88;;;1.70;;
42726;SDS011;28372;56.832;60.658;2022-09-30T18:13:27;2.90;;;1.45;;
42726;SDS011;28372;56.832;60.658;2022-09-30T18:15:54;3.03;;;1.50;;
42726;SDS011;28372;56.832;60.658;2022-09-30T18:18:25;3.53;;;1.40;;
42726;SDS011;28372;56.832;60.658;2022-09-30T18:20:54;3.88;;;1.70;;
42726;SDS011;28372;56.832;60.658;2022-09-30T18:23:21;3.95;;;1.80;;
42726;SDS011;28372;56.832;60.658;2022-09-30T18:25:49;3.83;;;1.60;;
42726;SDS011;28372;56.832;60.658;2022-09-30T18:28:17;4.88;;;1.67;;
42726;SDS011;28372;56.832;60.658;2022-09-30T18:30:45;4.47;;;1.60;;
42726;SDS011;28372;56.832;60.658;2022-09-30T18:33:13;3.45;;;1.77;;
42726;SDS011;28372;56.832;60.658;2022-09-30T18:35:43;3.80;;;1.60;;
42726;SDS011;28372;56.832;60.658;2022-09-30T18:38:10;3.78;;;1.73;;
42726;SDS011;28372;56.832;60.658;2022-09-30T18:40:41;5.07;;;1.60;;